sensor_id;sensor_type;location;lat;lon;timestamp;P1;durP1;ratioP1;P2;durP2;ratioP2
11125;SDS011;5617;54.046;10.676;2023-05-02T00:00:13;11.47;;;6.87;;
11125;SDS011;5617;54.046;10.676;2023-05-02T00:02:23;10.83;;;6.87;;
11125;SDS011;5617;54.046;10.676;2023-05-02T00:04:31;8.73;;;6.63;;
11125;SDS011;5617;54.046;10.676;2023-05-02T00:06:41;11.10;;;6.90;;
11125;SDS011;5617;54.046;10.676;2023-05-02T00:08:51;9.43;;;6.23;;
11125;SDS011;5617;54.046;10.676;2023-05-02T00:10:59;11.93;;;6.80;;
11125;SDS011;5617;54.046;10.676;2023-05-02T00:13:07;10.10;;;6.93;;
11125;SDS011;5617;54.046;10.676;2023-05-02T00:15:15;11.33;;;7.73;;
11125;SDS011;5617;54.046;10.676;2023-05-02T00:17:22;13.50;;;8.63;;
11125;SDS011;5617;54.046;10.676;2023-05-02T00:19:30;11.37;;;8.70;;
11125;SDS011;5617;54.046;10.676;2023-05-02T00:21:39;11.67;;;8.83;;
11125;SDS011;5617;54.046;10.676;2023-05-02T00:23:47;13.57;;;9.77;;
11125;SDS011;5617;54.046;10.676;2023-05-02T00:25:56;16.00;;;12.37;;
11125;SDS011;5617;54.046;10.676;2023-05-02T00:28:04;15.73;;;10.00;;
11125;SDS011;5617;54.046;10.676;2023-05-02T00:30:13;16.00;;;11.27;;
11125;SDS011;5617;54.046;10.676;2023-05-02T00:32:21;17.03;;;11.00;;
11125;SDS011;5617;54.046;10.676;2023-05-02T00:34:29;16.07;;;10.50;;
11125;SDS011;5617;54.046;10.676;2023-05-02T00:36:36;18.07;;;11.77;;
11125;SDS011;5617;54.046;10.676;2023-05-02T00:38:45;17.47;;;10.20;;
11125;SDS011;5617;54.046;10.676;2023-05-02T00:40:53;16.80;;;11.43;;
11125;SDS011;5617;54.046;10.676;2023-05-02T00:43:01;16.23;;;12.10;;
11125;SDS011;5617;54.046;10.676;2023-05-02T00:45:09;19.73;;;11.90;;
11125;SDS011;5617;54.046;10.676;2023-05-02T00:47:17;16.17;;;11.20;;
11125;SDS011;5617;54.046;10.676;2023-05-02T00:49:26;15.00;;;11.33;;
11125;SDS011;5617;54.046;10.676;2023-05-02T00:51:33;15.20;;;12.00;;
11125;SDS011;5617;54.046;10.676;2023-05-02T00:53:42;15.00;;;10.93;;
11125;SDS011;5617;54.046;10.676;2023-05-02T00:55:51;15.70;;;11.17;;
11125;SDS011;5617;54.046;10.676;2023-05-02T00:57:59;13.63;;;10.40;;
11125;SDS011;5617;54.046;10.676;2023-05-02T01:00:08;14.90;;;11.50;;
11125;SDS011;5617;54.046;10.676;2023-05-02T01:02:21;16.17;;;11.63;;
11125;SDS011;5617;54.046;10.676;2023-05-02T01:04:39;16.83;;;10.30;;
11125;SDS011;5617;54.046;10.676;2023-05-02T01:07:01;14.33;;;10.53;;
11125;SDS011;5617;54.046;10.676;2023-05-02T01:09:21;13.03;;;10.37;;
11125;SDS011;5617;54.046;10.676;2023-05-02T01:11:38;15.80;;;10.47;;
11125;SDS011;5617;54.046;10.676;2023-05-02T01:13:53;14.40;;;10.43;;
11125;SDS011;5617;54.046;10.676;2023-05-02T01:16:02;13.37;;;10.90;;
11125;SDS011;5617;54.046;10.676;2023-05-02T01:18:13;16.00;;;11.77;;
11125;SDS011;5617;54.046;10.676;2023-05-02T01:20:25;14.83;;;11.30;;
11125;SDS011;5617;54.046;10.676;2023-05-02T01:22:34;15.97;;;11.87;;
11125;SDS011;5617;54.046;10.676;2023-05-02T01:24:47;15.80;;;11.37;;
11125;SDS011;5617;54.046;10.676;2023-05-02T01:27:06;15.17;;;11.00;;
11125;SDS011;5617;54.046;10.676;2023-05-02T01:29:23;15.00;;;11.50;;
11125;SDS011;5617;54.046;10.676;2023-05-02T01:31:39;16.40;;;11.80;;
11125;SDS011;5617;54.046;10.676;2023-05-02T01:33:49;16.00;;;11.87;;
11125;SDS011;5617;54.046;10.676;2023-05-02T01:35:58;18.00;;;12.30;;
11125;SDS011;5617;54.046;10.676;2023-05-02T01:38:42;18.13;;;12.80;;
11125;SDS011;5617;54.046;10.676;2023-05-02T01:40:50;18.17;;;12.50;;
11125;SDS011;5617;54.046;10.676;2023-05-02T01:43:00;19.00;;;13.20;;
11125;SDS011;5617;54.046;10.676;2023-05-02T01:45:11;18.63;;;12.90;;
11125;SDS011;5617;54.046;10.676;2023-05-02T01:47:21;17.83;;;12.10;;
11125;SDS011;5617;54.046;10.676;2023-05-02T01:49:30;18.70;;;13.17;;
11125;SDS011;5617;54.046;10.676;2023-05-02T01:51:42;16.87;;;13.70;;
11125;SDS011;5617;54.046;10.676;2023-05-02T01:53:53;17.73;;;13.70;;
11125;SDS011;5617;54.046;10.676;2023-05-02T01:56:01;19.87;;;14.27;;
11125;SDS011;5617;54.046;10.676;2023-05-02T01:58:10;20.50;;;14.83;;
11125;SDS011;5617;54.046;10.676;2023-05-02T02:00:21;19.17;;;13.93;;
11125;SDS011;5617;54.046;10.676;2023-05-02T02:02:32;19.40;;;14.77;;
11125;SDS011;5617;54.046;10.676;2023-05-02T02:04:41;21.13;;;15.23;;
11125;SDS011;5617;54.046;10.676;2023-05-02T02:06:54;19.57;;;13.37;;
11125;SDS011;5617;54.046;10.676;2023-05-02T02:09:07;19.27;;;13.17;;
11125;SDS011;5617;54.046;10.676;2023-05-02T02:11:16;20.17;;;14.30;;
11125;SDS011;5617;54.046;10.676;2023-05-02T02:13:28;21.13;;;13.87;;
11125;SDS011;5617;54.046;10.676;2023-05-02T02:15:41;18.57;;;13.40;;
11125;SDS011;5617;54.046;10.676;2023-05-02T02:17:54;17.33;;;12.77;;
11125;SDS011;5617;54.046;10.676;2023-05-02T02:20:07;18.53;;;12.70;;
11125;SDS011;5617;54.046;10.676;2023-05-02T02:22:17;15.93;;;12.13;;
11125;SDS011;5617;54.046;10.676;2023-05-02T02:24:27;16.30;;;11.40;;
11125;SDS011;5617;54.046;10.676;2023-05-02T02:26:35;16.17;;;11.50;;
11125;SDS011;5617;54.046;10.676;2023-05-02T02:28:44;15.40;;;11.50;;
11125;SDS011;5617;54.046;10.676;2023-05-02T02:30:53;16.13;;;11.33;;
11125;SDS011;5617;54.046;10.676;2023-05-02T02:33:02;14.10;;;9.67;;
11125;SDS011;5617;54.046;10.676;2023-05-02T02:35:09;13.53;;;9.47;;
11125;SDS011;5617;54.046;10.676;2023-05-02T02:37:18;13.17;;;9.80;;
11125;SDS011;5617;54.046;10.676;2023-05-02T02:39:34;12.03;;;9.13;;
11125;SDS011;5617;54.046;10.676;2023-05-02T02:41:54;9.87;;;6.97;;
11125;SDS011;5617;54.046;10.676;2023-05-02T02:44:12;8.53;;;5.97;;
11125;SDS011;5617;54.046;10.676;2023-05-02T02:46:32;4.70;;;3.50;;
11125;SDS011;5617;54.046;10.676;2023-05-02T02:48:54;4.13;;;2.60;;
11125;SDS011;5617;54.046;10.676;2023-05-02T02:51:13;4.27;;;2.47;;
11125;SDS011;5617;54.046;10.676;2023-05-02T02:53:31;3.83;;;2.30;;
11125;SDS011;5617;54.046;10.676;2023-05-02T02:55:52;5.13;;;2.03;;
11125;SDS011;5617;54.046;10.676;2023-05-02T02:58:06;4.27;;;1.90;;
11125;SDS011;5617;54.046;10.676;2023-05-02T03:00:26;4.47;;;2.00;;
11125;SDS011;5617;54.046;10.676;2023-05-02T03:02:36;7.30;;;2.33;;
11125;SDS011;5617;54.046;10.676;2023-05-02T03:04:48;5.77;;;2.20;;
11125;SDS011;5617;54.046;10.676;2023-05-02T03:07:00;5.17;;;2.40;;
11125;SDS011;5617;54.046;10.676;2023-05-02T03:09:13;6.57;;;2.30;;
11125;SDS011;5617;54.046;10.676;2023-05-02T03:11:22;8.60;;;2.53;;
11125;SDS011;5617;54.046;10.676;2023-05-02T03:13:31;6.63;;;2.87;;
11125;SDS011;5617;54.046;10.676;2023-05-02T03:15:49;8.73;;;2.47;;
11125;SDS011;5617;54.046;10.676;2023-05-02T03:18:27;8.70;;;2.80;;
11125;SDS011;5617;54.046;10.676;2023-05-02T03:20:35;8.87;;;2.80;;
11125;SDS011;5617;54.046;10.676;2023-05-02T03:22:42;10.00;;;2.80;;
11125;SDS011;5617;54.046;10.676;2023-05-02T03:24:50;8.50;;;2.80;;
11125;SDS011;5617;54.046;10.676;2023-05-02T03:26:58;8.77;;;3.10;;
11125;SDS011;5617;54.046;10.676;2023-05-02T03:29:06;9.17;;;2.93;;
11125;SDS011;5617;54.046;10.676;2023-05-02T03:31:14;7.47;;;2.53;;
11125;SDS011;5617;54.046;10.676;2023-05-02T03:33:22;7.57;;;2.83;;
11125;SDS011;5617;54.046;10.676;2023-05-02T03:35:31;9.47;;;3.37;;
11125;SDS011;5617;54.046;10.676;2023-05-02T03:37:39;11.47;;;3.03;;
11125;SDS011;5617;54.046;10.676;2023-05-02T03:39:49;11.33;;;2.83;;
11125;SDS011;5617;54.046;10.676;2023-05-02T03:41:56;10.70;;;3.00;;
11125;SDS011;5617;54.046;10.676;2023-05-02T03:44:04;7.73;;;2.80;;
11125;SDS011;5617;54.046;10.676;2023-05-02T03:46:12;7.03;;;2.83;;
11125;SDS011;5617;54.046;10.676;2023-05-02T03:48:20;8.30;;;3.30;;
11125;SDS011;5617;54.046;10.676;2023-05-02T03:50:28;8.57;;;3.07;;
11125;SDS011;5617;54.046;10.676;2023-05-02T03:52:37;8.90;;;3.07;;
11125;SDS011;5617;54.046;10.676;2023-05-02T03:54:45;8.13;;;2.70;;
11125;SDS011;5617;54.046;10.676;2023-05-02T03:56:53;8.50;;;2.93;;
11125;SDS011;5617;54.046;10.676;2023-05-02T03:59:01;11.83;;;3.23;;
11125;SDS011;5617;54.046;10.676;2023-05-02T04:01:12;13.63;;;2.80;;
11125;SDS011;5617;54.046;10.676;2023-05-02T04:03:21;10.00;;;2.57;;
11125;SDS011;5617;54.046;10.676;2023-05-02T04:05:29;6.20;;;2.60;;
11125;SDS011;5617;54.046;10.676;2023-05-02T04:07:38;8.53;;;2.20;;
11125;SDS011;5617;54.046;10.676;2023-05-02T04:09:48;12.43;;;2.80;;
11125;SDS011;5617;54.046;10.676;2023-05-02T04:11:56;7.37;;;2.83;;
11125;SDS011;5617;54.046;10.676;2023-05-02T04:14:04;6.53;;;2.83;;
11125;SDS011;5617;54.046;10.676;2023-05-02T04:16:12;10.17;;;2.60;;
11125;SDS011;5617;54.046;10.676;2023-05-02T04:18:20;8.03;;;2.90;;
11125;SDS011;5617;54.046;10.676;2023-05-02T04:20:27;7.67;;;2.27;;
11125;SDS011;5617;54.046;10.676;2023-05-02T04:22:35;12.57;;;3.00;;
11125;SDS011;5617;54.046;10.676;2023-05-02T04:24:46;7.20;;;2.43;;
11125;SDS011;5617;54.046;10.676;2023-05-02T04:26:53;12.10;;;2.50;;
11125;SDS011;5617;54.046;10.676;2023-05-02T04:29:01;10.17;;;2.53;;
11125;SDS011;5617;54.046;10.676;2023-05-02T04:31:10;9.20;;;2.43;;
11125;SDS011;5617;54.046;10.676;2023-05-02T04:33:18;7.50;;;2.80;;
11125;SDS011;5617;54.046;10.676;2023-05-02T04:35:26;11.20;;;2.47;;
11125;SDS011;5617;54.046;10.676;2023-05-02T04:37:34;8.77;;;2.70;;
11125;SDS011;5617;54.046;10.676;2023-05-02T04:39:41;7.90;;;2.30;;
11125;SDS011;5617;54.046;10.676;2023-05-02T04:41:50;8.77;;;2.67;;
11125;SDS011;5617;54.046;10.676;2023-05-02T04:43:58;7.90;;;2.20;;
11125;SDS011;5617;54.046;10.676;2023-05-02T04:46:07;8.17;;;2.37;;
11125;SDS011;5617;54.046;10.676;2023-05-02T04:48:15;6.30;;;2.20;;
11125;SDS011;5617;54.046;10.676;2023-05-02T04:50:22;9.33;;;2.23;;
11125;SDS011;5617;54.046;10.676;2023-05-02T04:52:31;11.23;;;2.40;;
11125;SDS011;5617;54.046;10.676;2023-05-02T04:54:38;7.37;;;1.97;;
11125;SDS011;5617;54.046;10.676;2023-05-02T04:56:47;6.57;;;2.30;;
11125;SDS011;5617;54.046;10.676;2023-05-02T04:58:56;8.70;;;2.00;;
11125;SDS011;5617;54.046;10.676;2023-05-02T05:01:03;8.93;;;2.13;;
11125;SDS011;5617;54.046;10.676;2023-05-02T05:03:11;4.63;;;1.97;;
11125;SDS011;5617;54.046;10.676;2023-05-02T05:05:19;7.00;;;2.27;;
11125;SDS011;5617;54.046;10.676;2023-05-02T05:07:27;5.37;;;1.80;;
11125;SDS011;5617;54.046;10.676;2023-05-02T05:09:35;6.70;;;1.90;;
11125;SDS011;5617;54.046;10.676;2023-05-02T05:11:43;8.20;;;2.00;;
11125;SDS011;5617;54.046;10.676;2023-05-02T05:13:51;7.77;;;2.20;;
11125;SDS011;5617;54.046;10.676;2023-05-02T05:16:00;5.23;;;1.90;;
11125;SDS011;5617;54.046;10.676;2023-05-02T05:18:11;6.63;;;2.00;;
11125;SDS011;5617;54.046;10.676;2023-05-02T05:20:19;6.43;;;2.43;;
11125;SDS011;5617;54.046;10.676;2023-05-02T05:22:27;6.40;;;2.10;;
11125;SDS011;5617;54.046;10.676;2023-05-02T05:24:35;7.57;;;1.90;;
11125;SDS011;5617;54.046;10.676;2023-05-02T05:26:43;8.80;;;2.30;;
11125;SDS011;5617;54.046;10.676;2023-05-02T05:28:51;5.23;;;2.03;;
11125;SDS011;5617;54.046;10.676;2023-05-02T05:31:04;4.07;;;1.53;;
11125;SDS011;5617;54.046;10.676;2023-05-02T05:33:13;8.33;;;2.40;;
11125;SDS011;5617;54.046;10.676;2023-05-02T05:35:21;6.37;;;2.07;;
11125;SDS011;5617;54.046;10.676;2023-05-02T05:37:30;7.30;;;2.10;;
11125;SDS011;5617;54.046;10.676;2023-05-02T05:39:38;7.63;;;1.80;;
11125;SDS011;5617;54.046;10.676;2023-05-02T05:41:45;7.27;;;2.13;;
11125;SDS011;5617;54.046;10.676;2023-05-02T05:43:53;3.93;;;1.80;;
11125;SDS011;5617;54.046;10.676;2023-05-02T05:46:02;12.03;;;2.30;;
11125;SDS011;5617;54.046;10.676;2023-05-02T05:48:11;6.63;;;2.13;;
11125;SDS011;5617;54.046;10.676;2023-05-02T05:50:19;4.70;;;1.70;;
11125;SDS011;5617;54.046;10.676;2023-05-02T05:52:27;7.57;;;2.27;;
11125;SDS011;5617;54.046;10.676;2023-05-02T05:54:34;7.73;;;2.23;;
11125;SDS011;5617;54.046;10.676;2023-05-02T05:56:42;8.30;;;2.43;;
11125;SDS011;5617;54.046;10.676;2023-05-02T05:58:50;7.17;;;2.00;;
11125;SDS011;5617;54.046;10.676;2023-05-02T06:01:00;8.40;;;2.00;;
11125;SDS011;5617;54.046;10.676;2023-05-02T06:03:08;4.57;;;1.97;;
11125;SDS011;5617;54.046;10.676;2023-05-02T06:05:17;13.67;;;3.00;;
11125;SDS011;5617;54.046;10.676;2023-05-02T06:07:25;7.83;;;2.30;;
11125;SDS011;5617;54.046;10.676;2023-05-02T06:09:33;6.17;;;1.90;;
11125;SDS011;5617;54.046;10.676;2023-05-02T06:11:41;8.77;;;2.10;;
11125;SDS011;5617;54.046;10.676;2023-05-02T06:13:49;10.43;;;2.20;;
11125;SDS011;5617;54.046;10.676;2023-05-02T06:15:59;6.10;;;1.83;;
11125;SDS011;5617;54.046;10.676;2023-05-02T06:18:07;9.37;;;2.10;;
11125;SDS011;5617;54.046;10.676;2023-05-02T06:20:15;5.83;;;1.83;;
11125;SDS011;5617;54.046;10.676;2023-05-02T06:22:25;6.07;;;2.53;;
11125;SDS011;5617;54.046;10.676;2023-05-02T06:24:33;6.13;;;1.63;;
11125;SDS011;5617;54.046;10.676;2023-05-02T06:26:42;4.03;;;1.63;;
11125;SDS011;5617;54.046;10.676;2023-05-02T06:28:51;4.77;;;1.90;;
11125;SDS011;5617;54.046;10.676;2023-05-02T06:31:01;6.43;;;1.90;;
11125;SDS011;5617;54.046;10.676;2023-05-02T06:33:11;8.60;;;1.80;;
11125;SDS011;5617;54.046;10.676;2023-05-02T06:35:19;10.00;;;2.00;;
11125;SDS011;5617;54.046;10.676;2023-05-02T06:37:32;4.93;;;1.80;;
11125;SDS011;5617;54.046;10.676;2023-05-02T06:39:41;7.03;;;2.07;;
11125;SDS011;5617;54.046;10.676;2023-05-02T06:41:48;5.33;;;2.10;;
11125;SDS011;5617;54.046;10.676;2023-05-02T06:43:56;7.20;;;1.83;;
11125;SDS011;5617;54.046;10.676;2023-05-02T06:46:04;9.13;;;2.40;;
11125;SDS011;5617;54.046;10.676;2023-05-02T06:48:12;6.50;;;1.53;;
11125;SDS011;5617;54.046;10.676;2023-05-02T06:50:20;3.10;;;1.70;;
11125;SDS011;5617;54.046;10.676;2023-05-02T06:52:28;5.80;;;1.53;;
11125;SDS011;5617;54.046;10.676;2023-05-02T06:54:37;4.83;;;1.70;;
11125;SDS011;5617;54.046;10.676;2023-05-02T06:56:47;4.40;;;1.70;;
11125;SDS011;5617;54.046;10.676;2023-05-02T06:58:55;5.73;;;1.90;;
11125;SDS011;5617;54.046;10.676;2023-05-02T07:01:03;5.10;;;1.77;;
11125;SDS011;5617;54.046;10.676;2023-05-02T07:03:11;4.30;;;1.90;;
11125;SDS011;5617;54.046;10.676;2023-05-02T07:05:19;3.40;;;1.30;;
11125;SDS011;5617;54.046;10.676;2023-05-02T07:07:27;5.23;;;2.07;;
11125;SDS011;5617;54.046;10.676;2023-05-02T07:09:34;6.87;;;1.63;;
11125;SDS011;5617;54.046;10.676;2023-05-02T07:11:44;4.60;;;1.90;;
11125;SDS011;5617;54.046;10.676;2023-05-02T07:13:52;6.53;;;2.30;;
11125;SDS011;5617;54.046;10.676;2023-05-02T07:16:00;7.00;;;2.00;;
11125;SDS011;5617;54.046;10.676;2023-05-02T07:18:08;5.63;;;1.73;;
11125;SDS011;5617;54.046;10.676;2023-05-02T07:20:16;3.40;;;1.50;;
11125;SDS011;5617;54.046;10.676;2023-05-02T07:22:25;4.87;;;1.90;;
11125;SDS011;5617;54.046;10.676;2023-05-02T07:24:33;4.27;;;1.63;;
11125;SDS011;5617;54.046;10.676;2023-05-02T07:26:41;6.73;;;1.90;;
11125;SDS011;5617;54.046;10.676;2023-05-02T07:28:50;6.27;;;1.50;;
11125;SDS011;5617;54.046;10.676;2023-05-02T07:30:58;6.57;;;1.93;;
11125;SDS011;5617;54.046;10.676;2023-05-02T07:33:06;4.63;;;1.70;;
11125;SDS011;5617;54.046;10.676;2023-05-02T07:35:14;4.60;;;1.50;;
11125;SDS011;5617;54.046;10.676;2023-05-02T07:37:22;4.77;;;1.67;;
11125;SDS011;5617;54.046;10.676;2023-05-02T07:39:31;5.20;;;1.80;;
11125;SDS011;5617;54.046;10.676;2023-05-02T07:41:39;4.23;;;1.70;;
11125;SDS011;5617;54.046;10.676;2023-05-02T07:43:47;7.63;;;1.87;;
11125;SDS011;5617;54.046;10.676;2023-05-02T07:45:57;5.00;;;1.80;;
11125;SDS011;5617;54.046;10.676;2023-05-02T07:48:05;3.53;;;1.50;;
11125;SDS011;5617;54.046;10.676;2023-05-02T07:50:15;4.13;;;1.57;;
11125;SDS011;5617;54.046;10.676;2023-05-02T07:52:23;5.07;;;1.67;;
11125;SDS011;5617;54.046;10.676;2023-05-02T07:54:32;6.80;;;1.60;;
11125;SDS011;5617;54.046;10.676;2023-05-02T07:56:41;3.93;;;1.40;;
11125;SDS011;5617;54.046;10.676;2023-05-02T07:58:49;6.70;;;1.80;;
11125;SDS011;5617;54.046;10.676;2023-05-02T08:00:58;6.57;;;1.57;;
11125;SDS011;5617;54.046;10.676;2023-05-02T08:03:06;4.60;;;1.93;;
11125;SDS011;5617;54.046;10.676;2023-05-02T08:05:14;4.63;;;1.70;;
11125;SDS011;5617;54.046;10.676;2023-05-02T08:07:23;3.90;;;1.23;;
11125;SDS011;5617;54.046;10.676;2023-05-02T08:09:31;3.23;;;1.30;;
11125;SDS011;5617;54.046;10.676;2023-05-02T08:11:39;5.27;;;1.53;;
11125;SDS011;5617;54.046;10.676;2023-05-02T08:13:47;3.43;;;1.70;;
11125;SDS011;5617;54.046;10.676;2023-05-02T08:15:55;5.60;;;2.23;;
11125;SDS011;5617;54.046;10.676;2023-05-02T08:18:05;9.73;;;1.83;;
11125;SDS011;5617;54.046;10.676;2023-05-02T08:20:12;3.37;;;1.60;;
11125;SDS011;5617;54.046;10.676;2023-05-02T08:22:20;3.83;;;1.30;;
11125;SDS011;5617;54.046;10.676;2023-05-02T08:24:28;4.10;;;1.40;;
11125;SDS011;5617;54.046;10.676;2023-05-02T08:26:36;3.07;;;1.30;;
11125;SDS011;5617;54.046;10.676;2023-05-02T08:28:44;5.50;;;1.90;;
11125;SDS011;5617;54.046;10.676;2023-05-02T08:30:52;6.33;;;1.70;;
11125;SDS011;5617;54.046;10.676;2023-05-02T08:33:00;5.40;;;1.70;;
11125;SDS011;5617;54.046;10.676;2023-05-02T08:35:09;3.87;;;1.70;;
11125;SDS011;5617;54.046;10.676;2023-05-02T08:37:17;4.50;;;1.60;;
11125;SDS011;5617;54.046;10.676;2023-05-02T08:39:25;3.00;;;1.53;;
11125;SDS011;5617;54.046;10.676;2023-05-02T08:41:33;4.97;;;1.50;;
11125;SDS011;5617;54.046;10.676;2023-05-02T08:43:42;5.47;;;1.47;;
11125;SDS011;5617;54.046;10.676;2023-05-02T08:45:50;5.23;;;1.50;;
11125;SDS011;5617;54.046;10.676;2023-05-02T08:48:04;4.20;;;1.80;;
11125;SDS011;5617;54.046;10.676;2023-05-02T08:50:16;3.67;;;2.17;;
11125;SDS011;5617;54.046;10.676;2023-05-02T08:52:25;4.40;;;2.20;;
11125;SDS011;5617;54.046;10.676;2023-05-02T08:54:35;4.47;;;1.50;;
11125;SDS011;5617;54.046;10.676;2023-05-02T08:56:44;4.03;;;1.67;;
11125;SDS011;5617;54.046;10.676;2023-05-02T08:58:52;4.53;;;1.40;;
11125;SDS011;5617;54.046;10.676;2023-05-02T09:01:00;3.37;;;1.27;;
11125;SDS011;5617;54.046;10.676;2023-05-02T09:03:11;4.43;;;1.40;;
11125;SDS011;5617;54.046;10.676;2023-05-02T09:05:30;3.67;;;1.30;;
11125;SDS011;5617;54.046;10.676;2023-05-02T09:07:43;4.10;;;1.50;;
11125;SDS011;5617;54.046;10.676;2023-05-02T09:09:52;4.00;;;1.67;;
11125;SDS011;5617;54.046;10.676;2023-05-02T09:12:00;3.80;;;1.27;;
11125;SDS011;5617;54.046;10.676;2023-05-02T09:14:13;6.30;;;1.70;;
11125;SDS011;5617;54.046;10.676;2023-05-02T09:16:23;7.93;;;1.93;;
11125;SDS011;5617;54.046;10.676;2023-05-02T09:18:33;3.33;;;1.37;;
11125;SDS011;5617;54.046;10.676;2023-05-02T09:20:43;5.07;;;1.67;;
11125;SDS011;5617;54.046;10.676;2023-05-02T09:22:52;6.10;;;1.83;;
11125;SDS011;5617;54.046;10.676;2023-05-02T09:25:00;4.53;;;1.40;;
11125;SDS011;5617;54.046;10.676;2023-05-02T09:27:08;4.17;;;1.37;;
11125;SDS011;5617;54.046;10.676;2023-05-02T09:29:16;3.90;;;1.40;;
11125;SDS011;5617;54.046;10.676;2023-05-02T09:31:27;5.10;;;1.70;;
11125;SDS011;5617;54.046;10.676;2023-05-02T09:33:57;3.20;;;1.40;;
11125;SDS011;5617;54.046;10.676;2023-05-02T09:36:17;5.33;;;1.50;;
11125;SDS011;5617;54.046;10.676;2023-05-02T09:38:25;5.27;;;1.60;;
11125;SDS011;5617;54.046;10.676;2023-05-02T09:40:33;3.90;;;1.40;;
11125;SDS011;5617;54.046;10.676;2023-05-02T09:42:42;7.03;;;1.47;;
11125;SDS011;5617;54.046;10.676;2023-05-02T09:44:50;4.27;;;1.43;;
11125;SDS011;5617;54.046;10.676;2023-05-02T09:46:58;5.73;;;1.60;;
11125;SDS011;5617;54.046;10.676;2023-05-02T09:49:07;5.73;;;1.43;;
11125;SDS011;5617;54.046;10.676;2023-05-02T09:51:17;3.00;;;1.60;;
11125;SDS011;5617;54.046;10.676;2023-05-02T09:53:26;2.63;;;1.20;;
11125;SDS011;5617;54.046;10.676;2023-05-02T09:55:34;6.27;;;1.50;;
11125;SDS011;5617;54.046;10.676;2023-05-02T09:57:42;4.30;;;1.70;;
11125;SDS011;5617;54.046;10.676;2023-05-02T09:59:53;7.10;;;1.50;;
11125;SDS011;5617;54.046;10.676;2023-05-02T10:02:03;3.47;;;1.57;;
11125;SDS011;5617;54.046;10.676;2023-05-02T10:04:12;5.07;;;2.03;;
11125;SDS011;5617;54.046;10.676;2023-05-02T10:06:23;2.93;;;1.63;;
11125;SDS011;5617;54.046;10.676;2023-05-02T10:08:33;3.83;;;1.33;;
11125;SDS011;5617;54.046;10.676;2023-05-02T10:10:43;3.97;;;1.30;;
11125;SDS011;5617;54.046;10.676;2023-05-02T10:12:53;4.27;;;1.67;;
11125;SDS011;5617;54.046;10.676;2023-05-02T10:15:02;1.67;;;1.40;;
11125;SDS011;5617;54.046;10.676;2023-05-02T10:17:13;3.17;;;1.33;;
11125;SDS011;5617;54.046;10.676;2023-05-02T10:19:28;4.00;;;1.53;;
11125;SDS011;5617;54.046;10.676;2023-05-02T10:21:41;1.63;;;1.13;;
11125;SDS011;5617;54.046;10.676;2023-05-02T10:23:49;3.33;;;1.40;;
11125;SDS011;5617;54.046;10.676;2023-05-02T10:25:58;4.37;;;1.60;;
11125;SDS011;5617;54.046;10.676;2023-05-02T10:28:06;3.57;;;1.40;;
11125;SDS011;5617;54.046;10.676;2023-05-02T10:30:16;2.73;;;1.47;;
11125;SDS011;5617;54.046;10.676;2023-05-02T10:32:25;3.73;;;1.40;;
11125;SDS011;5617;54.046;10.676;2023-05-02T10:34:34;3.17;;;1.30;;
11125;SDS011;5617;54.046;10.676;2023-05-02T10:36:43;3.03;;;1.77;;
11125;SDS011;5617;54.046;10.676;2023-05-02T10:38:53;5.90;;;2.23;;
11125;SDS011;5617;54.046;10.676;2023-05-02T10:41:02;3.57;;;1.43;;
11125;SDS011;5617;54.046;10.676;2023-05-02T10:43:14;3.73;;;1.40;;
11125;SDS011;5617;54.046;10.676;2023-05-02T10:45:29;3.00;;;1.40;;
11125;SDS011;5617;54.046;10.676;2023-05-02T10:47:40;2.27;;;1.40;;
11125;SDS011;5617;54.046;10.676;2023-05-02T10:49:48;6.60;;;1.60;;
11125;SDS011;5617;54.046;10.676;2023-05-02T10:51:58;2.63;;;1.40;;
11125;SDS011;5617;54.046;10.676;2023-05-02T10:54:34;2.93;;;1.60;;
11125;SDS011;5617;54.046;10.676;2023-05-02T10:59:25;4.63;;;1.53;;
11125;SDS011;5617;54.046;10.676;2023-05-02T11:01:36;3.07;;;1.50;;
11125;SDS011;5617;54.046;10.676;2023-05-02T11:03:54;5.53;;;1.47;;
11125;SDS011;5617;54.046;10.676;2023-05-02T11:06:03;3.50;;;1.80;;
11125;SDS011;5617;54.046;10.676;2023-05-02T11:08:32;3.97;;;1.37;;
11125;SDS011;5617;54.046;10.676;2023-05-02T11:10:40;3.40;;;1.40;;
11125;SDS011;5617;54.046;10.676;2023-05-02T11:12:48;3.80;;;1.30;;
11125;SDS011;5617;54.046;10.676;2023-05-02T11:14:57;2.93;;;1.27;;
11125;SDS011;5617;54.046;10.676;2023-05-02T11:17:06;2.53;;;1.70;;
11125;SDS011;5617;54.046;10.676;2023-05-02T11:19:15;3.43;;;1.37;;
11125;SDS011;5617;54.046;10.676;2023-05-02T11:21:26;4.97;;;1.67;;
11125;SDS011;5617;54.046;10.676;2023-05-02T11:23:38;5.40;;;1.30;;
11125;SDS011;5617;54.046;10.676;2023-05-02T11:25:48;3.23;;;1.30;;
11125;SDS011;5617;54.046;10.676;2023-05-02T11:27:56;2.90;;;1.57;;
11125;SDS011;5617;54.046;10.676;2023-05-02T11:30:05;4.57;;;1.23;;
11125;SDS011;5617;54.046;10.676;2023-05-02T11:32:14;5.33;;;1.40;;
11125;SDS011;5617;54.046;10.676;2023-05-02T11:34:22;4.27;;;1.63;;
11125;SDS011;5617;54.046;10.676;2023-05-02T11:36:32;3.73;;;1.40;;
11125;SDS011;5617;54.046;10.676;2023-05-02T11:38:42;4.67;;;1.20;;
11125;SDS011;5617;54.046;10.676;2023-05-02T11:40:50;4.93;;;1.40;;
11125;SDS011;5617;54.046;10.676;2023-05-02T11:42:59;4.23;;;1.30;;
11125;SDS011;5617;54.046;10.676;2023-05-02T11:45:17;3.90;;;1.27;;
11125;SDS011;5617;54.046;10.676;2023-05-02T11:47:26;4.67;;;1.40;;
11125;SDS011;5617;54.046;10.676;2023-05-02T11:49:35;2.53;;;1.30;;
11125;SDS011;5617;54.046;10.676;2023-05-02T11:51:43;2.63;;;1.20;;
11125;SDS011;5617;54.046;10.676;2023-05-02T11:53:52;3.97;;;1.40;;
11125;SDS011;5617;54.046;10.676;2023-05-02T11:56:02;3.70;;;1.40;;
11125;SDS011;5617;54.046;10.676;2023-05-02T11:58:14;4.27;;;1.57;;
11125;SDS011;5617;54.046;10.676;2023-05-02T12:00:25;4.70;;;1.40;;
11125;SDS011;5617;54.046;10.676;2023-05-02T12:02:37;3.43;;;1.33;;
11125;SDS011;5617;54.046;10.676;2023-05-02T12:04:46;2.70;;;1.53;;
11125;SDS011;5617;54.046;10.676;2023-05-02T12:06:54;3.57;;;1.60;;
11125;SDS011;5617;54.046;10.676;2023-05-02T12:09:07;4.00;;;1.43;;
11125;SDS011;5617;54.046;10.676;2023-05-02T12:11:15;3.23;;;1.80;;
11125;SDS011;5617;54.046;10.676;2023-05-02T12:13:24;2.77;;;1.30;;
11125;SDS011;5617;54.046;10.676;2023-05-02T12:15:32;4.47;;;1.67;;
11125;SDS011;5617;54.046;10.676;2023-05-02T12:17:44;1.77;;;1.37;;
11125;SDS011;5617;54.046;10.676;2023-05-02T12:19:54;3.13;;;1.73;;
11125;SDS011;5617;54.046;10.676;2023-05-02T12:22:02;4.57;;;1.97;;
11125;SDS011;5617;54.046;10.676;2023-05-02T12:24:11;2.93;;;1.50;;
11125;SDS011;5617;54.046;10.676;2023-05-02T12:26:21;3.23;;;1.43;;
11125;SDS011;5617;54.046;10.676;2023-05-02T12:28:32;2.60;;;1.30;;
11125;SDS011;5617;54.046;10.676;2023-05-02T12:30:55;4.17;;;1.40;;
11125;SDS011;5617;54.046;10.676;2023-05-02T12:33:03;2.03;;;1.40;;
11125;SDS011;5617;54.046;10.676;2023-05-02T12:35:20;2.93;;;1.37;;
11125;SDS011;5617;54.046;10.676;2023-05-02T12:37:28;5.00;;;1.70;;
11125;SDS011;5617;54.046;10.676;2023-05-02T12:39:38;2.13;;;1.37;;
11125;SDS011;5617;54.046;10.676;2023-05-02T12:41:47;5.03;;;1.70;;
11125;SDS011;5617;54.046;10.676;2023-05-02T12:43:55;4.43;;;1.57;;
11125;SDS011;5617;54.046;10.676;2023-05-02T12:46:12;6.80;;;1.57;;
11125;SDS011;5617;54.046;10.676;2023-05-02T12:48:24;2.77;;;1.20;;
11125;SDS011;5617;54.046;10.676;2023-05-02T12:50:34;3.07;;;1.80;;
11125;SDS011;5617;54.046;10.676;2023-05-02T12:52:46;5.70;;;1.83;;
11125;SDS011;5617;54.046;10.676;2023-05-02T12:57:24;3.00;;;1.47;;
11125;SDS011;5617;54.046;10.676;2023-05-02T12:59:32;5.53;;;1.53;;
11125;SDS011;5617;54.046;10.676;2023-05-02T13:01:40;1.60;;;1.40;;
11125;SDS011;5617;54.046;10.676;2023-05-02T13:03:49;6.50;;;1.40;;